Time;durP1;ratioP1;P1;durP2;ratioP2;P2;SDS_P1;SDS_P2;PMS_P1;PMS_P2;Temp;Humidity;BMP_temperature;BMP_pressure;BME280_temperature;BME280_humidity;BME280_pressure;Samples;Min_cycle;Max_cycle;Signal;HPM_P1;HPM_P2
2022/07/28 00:00:32;;;;;;;8.35;3.78;;;13.80;1.00;;;14.42;100.00;99170.41;5040131;27;129211;-74
2022/07/28 00:03:01;;;;;;;7.50;3.72;;;13.90;1.00;;;14.38;100.00;99168.34;5041662;27;120002;-74
2022/07/28 00:05:31;;;;;;;10.50;4.10;;;13.90;1.00;;;14.38;100.00;99164.81;5041264;27;119405;-74
2022/07/28 00:08:00;;;;;;;8.95;3.75;;;13.80;1.00;;;14.31;100.00;99168.13;5040871;27;129809;-74
2022/07/28 00:10:28;;;;;;;8.43;4.35;;;13.70;1.00;;;14.26;100.00;99171.13;5041127;27;129266;-74
2022/07/28 00:12:58;;;;;;;10.57;4.32;;;13.60;1.00;;;14.23;100.00;99171.81;5041372;27;119650;-74
2022/07/28 00:15:27;;;;;;;7.68;4.00;;;13.60;1.00;;;14.20;100.00;99177.94;5041637;27;120856;-74
2022/07/28 00:17:56;;;;;;;8.70;4.32;;;13.60;1.00;;;14.16;100.00;99177.03;5040903;27;130384;-74
2022/07/28 00:20:26;;;;;;;7.93;4.00;;;13.50;1.00;;;14.12;100.00;99176.94;5040963;27;129588;-74
2022/07/28 00:22:56;;;;;;;10.25;4.22;;;13.40;1.00;;;14.05;100.00;99170.47;5039865;27;122468;-73
2022/07/28 00:25:25;;;;;;;8.95;4.10;;;13.40;1.00;;;14.02;100.00;99171.94;5041082;27;122053;-74
2022/07/28 00:27:53;;;;;;;7.22;4.70;;;13.30;1.00;;;13.98;100.00;99168.31;5040716;27;130093;-74
2022/07/28 00:30:22;;;;;;;8.27;4.13;;;13.30;1.00;;;13.91;100.00;99177.03;5042635;27;128304;-74
2022/07/28 00:32:50;;;;;;;8.40;3.92;;;13.30;1.00;;;13.93;100.00;99169.34;5041011;27;120112;-73
2022/07/28 00:35:19;;;;;;;8.30;4.10;;;13.40;1.00;;;13.91;100.00;99160.69;5026182;27;119121;-74
2022/07/28 00:37:47;;;;;;;10.55;3.78;;;13.40;1.00;;;13.88;100.00;99161.34;5042631;27;129435;-75
2022/07/28 00:40:17;;;;;;;8.15;4.35;;;13.40;1.00;;;13.84;100.00;99155.00;5026124;27;128308;-74
2022/07/28 00:42:46;;;;;;;6.35;3.72;;;13.40;1.00;;;13.82;100.00;99163.53;5040944;27;120303;-74
2022/07/28 00:45:14;;;;;;;9.70;3.90;;;13.30;1.00;;;13.79;100.00;99153.31;5059945;27;118980;-75
2022/07/28 00:47:43;;;;;;;6.53;3.95;;;13.30;1.00;;;13.79;100.00;99163.41;5039256;27;129872;-74
2022/07/28 00:50:11;;;;;;;8.70;3.97;;;13.20;1.00;;;13.77;100.00;99168.41;5040476;27;129348;-74
2022/07/28 00:52:40;;;;;;;8.55;4.15;;;13.20;1.00;;;13.78;100.00;99161.84;5042659;27;118594;-74
2022/07/28 00:55:10;;;;;;;7.70;4.30;;;13.30;1.00;;;13.75;100.00;99162.50;5040731;27;120032;-75
2022/07/28 00:57:41;;;;;;;8.23;4.10;;;13.50;1.00;;;13.78;100.00;99172.75;5040401;27;130041;-74
2022/07/28 01:00:13;;;;;;;7.85;3.80;;;13.30;1.00;;;13.74;100.00;99180.00;5042539;27;128995;-74
2022/07/28 01:02:42;;;;;;;8.10;3.90;;;13.30;1.00;;;13.70;100.00;99176.34;5042966;27;118416;-74
2022/07/28 01:05:13;;;;;;;8.40;3.67;;;13.40;1.00;;;13.68;100.00;99167.72;5041380;27;119452;-75
2022/07/28 01:07:50;;;;;;;8.20;3.80;;;13.40;1.00;;;13.60;100.00;99162.06;5040063;27;129933;-74
2022/07/28 01:10:28;;;;;;;7.88;4.10;;;13.30;1.00;;;13.49;100.00;99163.63;5038627;27;129400;-75
2022/07/28 01:13:10;;;;;;;8.07;4.40;;;13.30;1.00;;;13.56;100.00;99166.59;5041415;27;121809;-75
2022/07/28 01:15:48;;;;;;;11.10;4.40;;;13.50;1.00;;;13.62;100.00;99167.19;5040453;27;122441;-74
2022/07/28 01:18:21;;;;;;;12.73;4.28;;;13.50;1.00;;;13.61;100.00;99163.63;5041957;27;129255;-73
2022/07/28 01:20:53;;;;;;;7.57;4.05;;;13.50;1.00;;;13.64;100.00;99165.69;5038677;27;130021;-74
2022/07/28 01:24:05;;;;;;;8.00;4.10;;;13.40;1.00;;;13.56;100.00;99174.78;5040241;27;119538;-71
2022/07/28 01:26:58;;;;;;;8.32;4.10;;;13.50;1.00;;;13.57;100.00;99181.81;5040164;27;119353;-74
2022/07/28 01:29:55;;;;;;;11.60;4.22;;;13.50;1.00;;;13.57;100.00;99179.09;5040252;27;129922;-74
2022/07/28 01:32:28;;;;;;;7.57;4.38;;;13.50;1.00;;;13.57;100.00;99179.09;5041581;27;129404;-72
2022/07/28 01:35:02;;;;;;;11.48;4.30;;;13.50;1.00;;;13.62;100.00;99180.81;5042178;27;118297;-72
2022/07/28 01:37:32;;;;;;;10.10;3.50;;;13.40;1.00;;;13.59;100.00;99176.03;5043859;27;119443;-74
2022/07/28 01:40:07;;;;;;;6.18;4.03;;;13.40;1.00;;;13.55;100.00;99170.44;5042354;27;129913;-73
2022/07/28 01:42:41;;;;;;;7.25;3.75;;;13.30;1.00;;;13.56;100.00;99177.50;5043357;27;129515;-75
2022/07/28 01:45:12;;;;;;;8.82;3.90;;;13.30;1.00;;;13.53;100.00;99172.72;5045887;27;119266;-74
2022/07/28 01:47:45;;;;;;;8.23;3.95;;;13.20;1.00;;;13.47;100.00;99174.84;5029465;27;119008;-73
2022/07/28 01:50:18;;;;;;;8.02;4.13;;;13.10;1.00;;;13.43;100.00;99173.97;5028322;27;128838;-73
2022/07/28 01:52:49;;;;;;;10.07;3.88;;;13.00;1.00;;;13.40;100.00;99174.63;5043355;27;129371;-74
2022/07/28 01:55:21;;;;;;;8.38;3.95;;;13.10;1.00;;;13.41;100.00;99175.44;5043698;27;119869;-74
2022/07/28 01:57:54;;;;;;;10.02;4.10;;;13.10;1.00;;;13.39;100.00;99183.16;5043820;27;119231;-73
2022/07/28 02:00:24;;;;;;;9.40;4.20;;;13.20;1.00;;;13.40;100.00;99184.72;5045213;27;129180;-73
2022/07/28 02:02:56;;;;;;;6.45;3.53;;;13.20;1.00;;;13.36;100.00;99186.56;5043093;27;129737;-72
2022/07/28 02:05:29;;;;;;;9.25;4.07;;;13.20;99.90;;;13.33;100.00;99181.75;5042163;27;121759;-74
2022/07/28 02:07:59;;;;;;;9.15;3.92;;;13.20;99.90;;;13.30;100.00;99180.47;5043285;27;122503;-73
2022/07/28 02:10:29;;;;;;;12.45;3.90;;;13.10;99.90;;;13.28;100.00;99186.28;5044471;27;129444;-73
2022/07/28 02:13:00;;;;;;;9.00;3.78;;;13.10;99.90;;;13.28;100.00;99189.00;5028311;27;128762;-73
2022/07/28 02:15:31;;;;;;;6.93;3.63;;;13.00;99.90;;;13.29;100.00;99185.16;5043378;27;120306;-73
2022/07/28 02:18:02;;;;;;;6.78;3.40;;;13.10;99.90;;;13.29;100.00;99192.50;5041948;27;119348;-74
2022/07/28 02:20:31;;;;;;;10.27;4.25;;;13.10;99.90;;;13.29;100.00;99200.69;5042899;27;129994;-73
2022/07/28 02:23:00;;;;;;;11.00;4.05;;;13.10;99.90;;;13.28;100.00;99208.06;5045050;27;129204;-74
2022/07/28 02:25:30;;;;;;;10.05;3.35;;;13.10;99.90;;;13.27;100.00;99209.19;5041650;27;119774;-73
2022/07/28 02:28:03;;;;;;;6.22;3.65;;;13.10;99.90;;;13.25;100.00;99211.47;5043042;27;119368;-72
2022/07/28 02:30:37;;;;;;;7.45;3.42;;;13.10;99.90;;;13.25;100.00;99216.91;5041470;27;129878;-73
2022/07/28 02:33:14;;;;;;;7.70;3.75;;;13.00;99.90;;;13.26;100.00;99213.06;5042590;27;129469;-72
2022/07/28 02:35:49;;;;;;;9.15;3.88;;;13.00;99.90;;;13.27;100.00;99203.75;5041942;27;119728;-75
2022/07/28 02:38:24;;;;;;;7.57;3.47;;;13.00;99.90;;;13.29;100.00;99206.13;5043305;27;119742;-75
2022/07/28 02:40:56;;;;;;;8.15;3.40;;;13.00;99.90;;;13.35;100.00;99220.38;5042725;27;129825;-74
2022/07/28 02:43:28;;;;;;;10.10;3.92;;;13.00;99.90;;;13.37;100.00;99220.84;5044337;27;128638;-73
2022/07/28 02:46:01;;;;;;;5.32;3.28;;;13.00;99.90;;;13.39;100.00;99227.56;5041440;27;119609;-73
2022/07/28 02:48:35;;;;;;;8.07;3.58;;;13.00;99.90;;;13.43;100.00;99227.66;5042976;27;118982;-73
2022/07/28 02:51:05;;;;;;;6.88;3.35;;;13.00;99.90;;;13.45;100.00;99237.09;5042287;27;130635;-72
2022/07/28 02:53:35;;;;;;;8.55;3.75;;;13.00;99.90;;;13.52;100.00;99239.28;5043697;27;129640;-74
2022/07/28 02:56:05;;;;;;;7.22;2.92;;;13.00;99.90;;;13.61;100.00;99245.44;5041346;27;122063;-74
2022/07/28 02:58:35;;;;;;;5.85;2.92;;;13.10;99.90;;;13.66;100.00;99247.97;5042335;27;121718;-74
2022/07/28 03:01:04;;;;;;;6.38;2.97;;;13.10;99.90;;;13.76;100.00;99245.91;5042176;27;129953;-73
2022/07/28 03:03:34;;;;;;;7.15;2.75;;;13.10;99.90;;;13.86;100.00;99241.97;5042242;27;129425;-74
2022/07/28 03:06:03;;;;;;;7.18;2.70;;;13.20;99.90;;;13.94;100.00;99247.28;5044396;27;119559;-73
2022/07/28 03:08:32;;;;;;;8.93;3.00;;;13.20;99.90;;;14.06;100.00;99243.00;5042198;27;119445;-72
2022/07/28 03:11:08;;;;;;;7.88;3.20;;;13.30;99.90;;;14.19;100.00;99247.28;5027215;27;129805;-73
2022/07/28 03:13:37;;;;;;;7.88;2.40;;;13.40;99.90;;;14.56;100.00;99252.72;5042468;27;129594;-74
2022/07/28 03:16:07;;;;;;;6.80;2.45;;;13.60;99.90;;;15.60;100.00;99265.81;5027263;27;119165;-74
2022/07/28 03:18:37;;;;;;;6.43;1.83;;;14.40;99.90;;;16.81;100.00;99253.44;5042297;27;120008;-73
2022/07/28 03:21:06;;;;;;;5.40;1.80;;;15.20;99.90;;;17.90;92.98;99251.63;5040855;27;130487;-74
2022/07/28 03:23:41;;;;;;;6.03;1.70;;;15.80;99.90;;;18.65;84.92;99249.22;5042018;27;129497;-74
2022/07/28 03:26:15;;;;;;;8.57;1.60;;;16.10;99.90;;;18.86;81.74;99261.69;5041145;27;119925;-74
2022/07/28 03:28:46;;;;;;;4.80;1.90;;;16.20;99.90;;;18.85;80.96;99255.41;5042448;27;119355;-74
2022/07/28 03:31:15;;;;;;;7.30;2.13;;;16.00;99.90;;;18.58;80.95;99262.06;5041738;27;129786;-73
2022/07/28 03:33:47;;;;;;;3.97;1.88;;;15.40;99.90;;;18.07;82.43;99255.00;5043779;27;129855;-78
2022/07/28 03:36:25;;;;;;;4.72;2.10;;;15.00;99.90;;;17.70;85.02;99270.06;5044335;27;118436;-75
2022/07/28 03:39:01;;;;;;;8.82;2.22;;;14.90;99.90;;;17.32;86.55;99265.44;5042564;27;119492;-76
2022/07/28 03:41:32;;;;;;;8.00;2.88;;;14.70;99.90;;;17.03;88.09;99271.16;5040297;27;130431;-76
2022/07/28 03:44:02;;;;;;;5.65;2.40;;;14.50;99.90;;;16.78;90.38;99275.28;5041409;27;129578;-75
2022/07/28 03:46:32;;;;;;;6.68;2.60;;;14.40;99.90;;;16.73;90.93;99279.09;5040702;27;122458;-74
2022/07/28 03:49:02;;;;;;;6.40;2.92;;;14.50;99.90;;;16.62;92.16;99287.06;5041979;27;121870;-76
2022/07/28 03:51:30;;;;;;;4.05;2.22;;;14.50;99.90;;;16.59;93.29;99287.00;5041556;27;131047;-76
2022/07/28 03:53:59;;;;;;;6.35;2.50;;;14.50;99.90;;;16.57;94.21;99287.34;5043196;27;129316;-75
2022/07/28 03:56:27;;;;;;;4.22;1.83;;;14.60;99.90;;;16.48;94.08;99297.69;5041716;27;120234;-74
2022/07/28 03:58:56;;;;;;;8.85;2.40;;;14.60;99.90;;;16.32;94.58;99292.25;5041276;27;120425;-74
2022/07/28 04:01:24;;;;;;;6.15;2.30;;;14.40;99.90;;;16.24;96.48;99290.50;5041290;27;129593;-75
2022/07/28 04:03:53;;;;;;;6.00;2.20;;;14.40;99.90;;;16.14;96.77;99287.16;5043644;27;129561;-75
2022/07/28 04:06:23;;;;;;;5.35;2.60;;;14.30;99.90;;;16.04;97.14;99287.66;5041989;27;120712;-73
2022/07/28 04:08:51;;;;;;;5.82;1.90;;;14.30;99.90;;;16.00;97.61;99297.72;5041482;27;119543;-70
2022/07/28 04:11:20;;;;;;;7.00;2.20;;;14.30;99.90;;;15.95;97.37;99285.09;5039792;27;130785;-74
2022/07/28 04:13:49;;;;;;;5.97;2.15;;;14.40;99.90;;;15.97;97.18;99301.16;5041196;27;129473;-75
2022/07/28 04:16:18;;;;;;;7.15;2.40;;;14.40;99.90;;;16.11;96.76;99296.06;5041445;27;119908;-75
2022/07/28 04:18:46;;;;;;;5.20;1.83;;;14.60;99.90;;;16.12;95.33;99292.16;5041643;27;121068;-75
2022/07/28 04:21:15;;;;;;;6.32;2.20;;;14.50;99.90;;;16.25;95.32;99297.53;5041103;27;129989;-75
2022/07/28 04:23:45;;;;;;;5.32;2.15;;;14.70;99.90;;;16.35;93.40;99291.53;5043243;27;129338;-74
2022/07/28 04:26:14;;;;;;;4.00;1.83;;;14.70;99.90;;;16.34;92.57;99287.22;5041506;27;119599;-76
2022/07/28 04:28:42;;;;;;;4.60;1.90;;;14.70;99.90;;;16.43;92.79;99292.50;5041593;27;120145;-75
2022/07/28 04:31:11;;;;;;;6.00;1.90;;;14.90;99.90;;;16.48;92.45;99289.47;5040776;27;129894;-74
2022/07/28 04:33:39;;;;;;;5.50;2.15;;;15.10;99.90;;;16.30;93.32;99294.56;5039434;27;129555;-75
2022/07/28 04:36:08;;;;;;;5.68;1.70;;;15.10;99.90;;;16.52;92.49;99285.69;5040021;27;122106;-75
2022/07/28 04:38:37;;;;;;;5.25;1.83;;;15.20;99.90;;;16.71;91.22;99287.66;5041234;27;122266;-74
2022/07/28 04:41:07;;;;;;;4.55;1.70;;;15.40;99.90;;;16.60;90.34;99285.84;5025846;27;129613;-76
2022/07/28 04:43:36;;;;;;;4.90;1.30;;;15.30;99.90;;;16.35;91.29;99291.53;5040619;27;130018;-76
2022/07/28 04:46:05;;;;;;;2.75;1.60;;;15.20;99.90;;;16.47;89.38;99294.19;5040802;27;119682;-76
2022/07/28 04:48:33;;;;;;;3.50;1.38;;;15.30;99.90;;;16.62;87.67;99284.31;5040910;27;119581;-77
2022/07/28 04:51:02;;;;;;;6.70;1.70;;;15.40;99.90;;;16.44;89.13;99291.34;5042323;27;129492;-76
2022/07/28 04:53:31;;;;;;;7.20;1.60;;;15.40;99.90;;;16.53;89.83;99302.91;5041873;27;129518;-75
2022/07/28 04:55:59;;;;;;;3.92;1.27;;;15.50;99.90;;;16.32;88.69;99303.22;5040781;27;119636;-74
2022/07/28 04:58:30;;;;;;;6.82;1.60;;;15.40;99.90;;;16.19;89.91;99302.50;5043003;27;118379;-74
2022/07/28 05:00:58;;;;;;;3.78;1.50;;;15.40;99.90;;;16.16;89.49;99306.75;5039075;27;129780;-74
2022/07/28 05:03:27;;;;;;;5.97;1.60;;;15.40;99.90;;;16.35;87.82;99307.97;5040616;27;130048;-74
2022/07/28 05:05:55;;;;;;;2.80;1.30;;;15.50;99.90;;;16.38;87.54;99307.25;5040464;27;119498;-75
2022/07/28 05:08:24;;;;;;;6.60;1.55;;;15.50;99.90;;;16.45;87.94;99312.88;5040713;27;119273;-75
2022/07/28 05:10:53;;;;;;;4.25;1.45;;;15.60;99.90;;;16.64;87.94;99311.38;5039018;27;130417;-75
2022/07/28 05:13:21;;;;;;;4.43;1.50;;;15.70;99.90;;;16.70;87.64;99308.00;5041998;27;129157;-75
2022/07/28 05:15:52;;;;;;;5.70;1.30;;;15.70;99.90;;;16.72;82.93;99315.88;5040673;27;120541;-74
2022/07/28 05:18:20;;;;;;;4.57;1.60;;;15.80;99.90;;;16.66;83.69;99306.34;5043130;27;118907;-74
2022/07/28 05:20:49;;;;;;;4.05;1.33;;;15.80;99.90;;;16.78;83.96;99308.97;5040029;27;129940;-74
2022/07/28 05:23:17;;;;;;;5.80;1.95;;;15.90;99.90;;;17.06;84.32;99313.47;5025249;27;128186;-74
2022/07/28 05:25:46;;;;;;;4.88;1.50;;;16.10;99.90;;;17.33;83.01;99316.41;5039137;27;121944;-72
2022/07/28 05:28:14;;;;;;;2.90;1.30;;;16.20;99.90;;;17.29;82.94;99310.03;5040357;27;122867;-74
2022/07/28 05:30:43;;;;;;;3.95;1.35;;;16.10;99.90;;;17.35;81.94;99320.34;5041900;27;128917;-81
2022/07/28 05:33:15;;;;;;;6.32;1.77;;;16.10;99.90;;;17.12;83.63;99317.53;5043390;27;129598;-74
2022/07/28 05:35:45;;;;;;;5.10;1.80;;;16.10;99.90;;;17.18;83.96;99318.84;5042306;27;118506;-75
2022/07/28 05:38:13;;;;;;;3.03;1.23;;;16.20;99.90;;;17.42;83.35;99319.69;5040180;27;119412;-74
2022/07/28 05:40:42;;;;;;;3.53;1.38;;;16.20;99.90;;;17.77;83.13;99314.09;5039898;27;130378;-74
2022/07/28 05:43:10;;;;;;;2.45;1.27;;;16.60;99.90;;;17.88;80.44;99321.72;5040170;27;129385;-75
2022/07/28 05:45:39;;;;;;;5.20;1.30;;;16.70;99.90;;;18.19;79.67;99323.47;5040099;27;119238;-77
2022/07/28 05:48:07;;;;;;;3.65;1.20;;;16.80;99.90;;;18.47;76.66;99320.38;5039957;27;119378;-74
2022/07/28 05:50:38;;;;;;;4.35;1.30;;;17.00;99.90;;;18.38;73.06;99332.81;5038651;27;130732;-74
2022/07/28 05:53:06;;;;;;;4.05;1.70;;;17.00;99.90;;;18.41;74.40;99327.34;5040444;27;129799;-74
2022/07/28 05:55:35;;;;;;;4.32;1.10;;;16.90;99.90;;;18.32;74.58;99322.13;5041928;27;118729;-75
2022/07/28 05:58:04;;;;;;;4.03;1.55;;;16.80;99.90;;;17.93;76.20;99316.75;5040204;27;119350;-75
2022/07/28 06:00:33;;;;;;;2.35;1.10;;;16.70;99.90;;;17.92;77.10;99331.66;5039617;27;130026;-76
2022/07/28 06:03:02;;;;;;;3.47;1.20;;;16.80;99.90;;;18.25;75.77;99324.75;5039610;27;129445;-75
2022/07/28 06:05:32;;;;;;;3.67;1.27;;;17.00;99.90;;;18.52;75.22;99327.53;5040150;27;119513;-75
2022/07/28 06:08:02;;;;;;;2.78;1.27;;;17.20;99.90;;;18.23;73.46;99323.53;5042339;27;118644;-76
2022/07/28 06:10:57;;;;;;;3.55;1.45;;;17.10;99.90;;;18.37;72.76;99328.47;5039522;27;129931;-75
2022/07/28 06:13:20;;;;;;;4.25;1.20;;;17.30;99.90;;;18.74;70.53;99325.09;5042360;27;129538;-76
2022/07/28 06:15:50;;;;;;;6.00;1.80;;;17.60;99.90;;;19.01;71.01;99326.69;5038427;27;121948;-75
2022/07/28 06:18:18;;;;;;;2.50;1.00;;;17.70;99.90;;;19.21;69.71;99332.03;5058936;27;121479;-77
2022/07/28 06:20:48;;;;;;;5.15;1.23;;;17.50;99.90;;;19.07;67.04;99337.34;5039341;27;129952;-74
2022/07/28 06:23:22;;;;;;;3.33;1.25;;;17.50;99.90;;;19.15;68.00;99334.34;5062013;27;128974;-76
2022/07/28 06:25:51;;;;;;;3.55;1.20;;;17.80;99.90;;;19.33;64.94;99337.31;5043150;27;119315;-75
2022/07/28 06:28:20;;;;;;;4.10;1.55;;;17.80;99.90;;;19.20;67.87;99325.75;5042055;27;119991;-78
2022/07/28 06:30:49;;;;;;;5.82;1.75;;;17.80;99.90;;;19.04;66.29;99328.69;5042833;27;129937;-77
2022/07/28 06:33:18;;;;;;;2.88;1.20;;;17.90;98.20;;;19.19;65.12;99339.88;5043197;27;129993;-78
2022/07/28 06:35:48;;;;;;;1.40;0.95;;;18.00;93.10;;;19.46;66.30;99334.31;5043377;27;120414;-80
2022/07/28 06:38:19;;;;;;;4.97;1.30;;;18.10;97.20;;;19.53;64.59;99331.66;5044971;27;118854;-79
2022/07/28 06:40:48;;;;;;;2.25;1.00;;;18.10;93.10;;;19.51;65.42;99339.47;5041628;27;129887;-78
2022/07/28 06:43:16;;;;;;;3.75;1.30;;;18.10;95.50;;;19.57;66.46;99332.47;5041664;27;129355;-81
2022/07/28 06:45:45;;;;;;;2.60;1.30;;;18.30;93.20;;;19.47;65.61;99344.16;5060575;27;121110;-79
2022/07/28 06:48:13;;;;;;;2.67;1.30;;;18.20;93.20;;;19.46;64.87;99350.81;5063181;27;119142;-77
2022/07/28 06:50:43;;;;;;;2.72;1.40;;;18.10;93.10;;;19.97;65.36;99355.72;5063229;27;130334;-81
2022/07/28 06:53:12;;;;;;;3.28;1.25;;;18.40;93.30;;;20.27;60.02;99357.56;5060199;27;129476;-81
2022/07/28 06:55:43;;;;;;;2.33;1.00;;;18.30;71.90;;;20.55;60.37;99356.22;5043357;27;119484;-79
2022/07/28 06:58:11;;;;;;;4.93;1.60;;;18.60;66.20;;;20.83;60.81;99361.97;5042782;27;119500;-78
2022/07/28 07:00:40;;;;;;;5.22;1.45;;;18.90;68.30;;;20.64;61.15;99353.94;5043623;27;130276;-77
2022/07/28 07:03:09;;;;;;;4.35;1.30;;;18.50;84.00;;;20.66;60.54;99346.09;5042546;27;129502;-75
2022/07/28 07:05:38;;;;;;;2.10;1.10;;;18.50;80.40;;;20.74;59.34;99358.75;5040318;27;121586;-78
2022/07/28 07:08:06;;;;;;;4.35;1.45;;;18.50;71.80;;;20.73;59.01;99362.69;5042673;27;121587;-78
2022/07/28 07:10:35;;;;;;;3.17;1.20;;;18.40;63.50;;;20.86;59.58;99362.38;5042042;27;130481;-81
2022/07/28 07:13:05;;;;;;;4.05;1.38;;;18.50;74.70;;;20.91;59.69;99362.00;5042619;27;129283;-79
2022/07/28 07:15:34;;;;;;;2.75;1.38;;;18.50;81.70;;;21.05;57.42;99364.88;5044147;27;119750;-79
2022/07/28 07:18:02;;;;;;;6.20;1.58;;;18.60;59.80;;;21.25;58.44;99367.31;5041478;27;119400;-79
2022/07/28 07:20:30;;;;;;;3.95;1.30;;;18.80;70.30;;;21.42;59.10;99369.34;5042129;27;129604;-80
2022/07/28 07:22:59;;;;;;;4.70;1.30;;;19.00;68.50;;;21.67;57.19;99363.16;5041398;27;129249;-77
2022/07/28 07:25:27;;;;;;;3.60;1.20;;;19.10;64.80;;;21.62;56.31;99366.31;5044555;27;118503;-77
2022/07/28 07:27:56;;;;;;;3.25;1.00;;;19.20;49.60;;;21.92;55.66;99362.44;5042219;27;119549;-78
2022/07/28 07:30:26;;;;;;;5.28;1.48;;;19.40;45.80;;;22.54;54.56;99364.88;5039575;27;130426;-76
2022/07/28 07:32:55;;;;;;;2.75;1.05;;;20.10;37.30;;;22.97;51.11;99364.84;5042660;27;128940;-78
2022/07/28 07:35:23;;;;;;;4.03;1.02;;;20.50;17.10;;;23.22;50.69;99372.31;5044103;27;118723;-79
2022/07/28 07:37:52;;;;;;;3.33;1.25;;;20.60;16.50;;;23.46;50.03;99367.06;5041291;27;119352;-79
2022/07/28 07:40:20;;;;;;;4.22;1.17;;;20.70;8.70;;;23.54;49.91;99374.16;5028408;27;129450;-78
2022/07/28 07:42:49;;;;;;;3.72;1.00;;;20.70;4.90;;;23.18;49.20;99379.81;5040857;27;129463;-79
2022/07/28 07:45:17;;;;;;;4.88;1.25;;;19.90;9.30;;;23.03;49.99;99378.25;5042563;27;120660;-82
2022/07/28 07:47:47;;;;;;;6.25;1.48;;;20.00;14.20;;;22.43;48.84;99375.94;5044860;27;119357;-78
2022/07/28 07:50:16;;;;;;;2.40;0.98;;;19.30;1.80;;;21.78;50.49;99377.00;5042146;27;130022;-76
2022/07/28 07:52:45;;;;;;;2.45;0.98;;;18.70;13.70;;;21.99;53.36;99384.56;5042836;27;129553;-81
2022/07/28 07:55:14;;;;;;;7.82;1.52;;;19.20;25.00;;;22.17;54.27;99379.84;5040492;27;121898;-78
2022/07/28 07:57:43;;;;;;;5.35;1.50;;;19.70;37.10;;;22.29;51.53;99381.44;5042479;27;121755;-79
2022/07/28 08:00:13;;;;;;;3.53;1.10;;;19.70;15.10;;;22.35;50.42;99381.88;5042386;27;130288;-80
2022/07/28 08:02:42;;;;;;;2.38;1.02;;;19.80;6.20;;;22.61;46.59;99378.72;5042207;27;129979;-78
2022/07/28 08:05:13;;;;;;;3.70;1.30;;;19.60;1.00;;;22.94;47.64;99387.75;5042783;27;119558;-79
2022/07/28 08:07:41;;;;;;;5.88;0.90;;;20.00;1.00;;;23.13;47.55;99383.00;5041530;27;119268;-81
2022/07/28 08:10:10;;;;;;;4.25;1.42;;;19.80;1.00;;;23.18;47.18;99387.34;5042333;27;130108;-78
2022/07/28 08:12:39;;;;;;;2.55;1.10;;;20.20;1.00;;;23.57;48.23;99384.41;5042462;27;129780;-81
2022/07/28 08:15:09;;;;;;;4.50;1.23;;;20.90;1.00;;;23.92;45.71;99388.25;5041916;27;119718;-79
2022/07/28 08:17:38;;;;;;;5.60;1.45;;;20.50;1.00;;;24.19;41.57;99391.22;5041727;27;120027;-80
2022/07/28 08:20:08;;;;;;;3.92;1.05;;;20.50;1.00;;;23.80;41.96;99391.44;5039883;27;130388;-78
2022/07/28 08:22:48;;;;;;;4.05;1.30;;;20.40;1.00;;;23.14;44.88;99390.13;5043593;27;128856;-80
2022/07/28 08:25:18;;;;;;;3.13;1.30;;;19.90;1.00;;;22.43;47.99;99389.00;5041332;27;119716;-79
2022/07/28 08:27:46;;;;;;;3.95;1.08;;;19.20;1.00;;;22.20;49.66;99379.06;5040717;27;119404;-77
2022/07/28 08:30:17;;;;;;;4.43;1.40;;;19.30;2.80;;;22.35;50.35;99379.91;5042397;27;129512;-78
2022/07/28 08:32:46;;;;;;;4.90;1.30;;;20.10;1.00;;;22.39;49.90;99382.66;5039791;27;129486;-72
2022/07/28 08:35:15;;;;;;;4.13;1.35;;;19.70;1.00;;;22.21;50.00;99386.19;5041585;27;120245;-77
2022/07/28 08:37:44;;;;;;;6.28;1.52;;;19.30;1.00;;;22.25;50.36;99386.97;5043629;27;119256;-75
2022/07/28 08:40:14;;;;;;;2.92;1.35;;;19.90;1.00;;;22.22;51.33;99382.25;5040865;27;129858;-75
2022/07/28 08:42:53;;;;;;;4.20;1.17;;;20.20;1.00;;;21.66;52.52;99389.19;5039987;27;129468;-78
2022/07/28 08:45:23;;;;;;;3.67;1.10;;;20.10;1.00;;;21.34;52.53;99389.84;5040736;27;122078;-77
2022/07/28 08:47:54;;;;;;;3.83;1.23;;;19.90;1.00;;;21.81;51.33;99384.50;5026472;27;121255;-78
2022/07/28 08:50:23;;;;;;;3.35;1.30;;;20.20;1.00;;;21.79;51.82;99384.91;5043168;27;129050;-76
2022/07/28 08:52:53;;;;;;;3.40;1.88;;;20.10;1.00;;;22.01;52.45;99391.28;5057934;27;128848;-79
2022/07/28 08:55:27;;;;;;;3.95;1.50;;;20.40;1.00;;;22.68;49.13;99385.44;5061435;27;119887;-79
2022/07/28 08:57:58;;;;;;;4.88;1.25;;;20.50;1.00;;;23.20;49.65;99380.19;5061475;27;119687;-80
2022/07/28 09:00:27;;;;;;;4.05;1.38;;;20.80;1.00;;;23.73;50.61;99389.47;5061477;27;129526;-78
2022/07/28 09:02:56;;;;;;;4.85;1.20;;;21.30;1.00;;;24.33;45.73;99387.56;5061110;27;129575;-77
2022/07/28 09:05:25;;;;;;;3.65;1.27;;;22.00;1.00;;;24.35;45.73;99387.16;5061305;27;120328;-78
2022/07/28 09:07:54;;;;;;;7.28;1.80;;;21.70;1.00;;;24.30;44.71;99391.16;5063354;27;118892;-80
2022/07/28 09:10:25;;;;;;;7.32;1.70;;;21.00;1.00;;;23.76;46.76;99391.44;5061517;27;129454;-76
2022/07/28 09:12:54;;;;;;;5.50;1.58;;;21.10;1.00;;;23.35;49.02;99394.03;5062927;27;129427;-77
2022/07/28 09:15:23;;;;;;;5.25;1.38;;;21.00;1.00;;;22.89;49.26;99390.94;5063157;27;118977;-76
2022/07/28 09:17:51;;;;;;;6.15;1.50;;;20.10;1.00;;;22.49;50.50;99394.91;5061214;27;119096;-78
2022/07/28 09:20:21;;;;;;;4.32;1.45;;;20.00;1.00;;;22.31;50.23;99400.44;5062895;27;129546;-77
2022/07/28 09:22:59;;;;;;;5.32;1.45;;;19.90;1.00;;;22.29;49.62;99400.00;5059225;27;129638;-76
2022/07/28 09:25:30;;;;;;;5.82;1.40;;;19.90;1.00;;;22.38;51.51;99394.91;5060922;27;119529;-76
2022/07/28 09:28:09;;;;;;;3.38;1.40;;;20.20;1.00;;;22.40;50.83;99392.53;5059961;27;119281;-76
2022/07/28 09:30:40;;;;;;;2.85;1.10;;;20.20;1.00;;;22.31;50.75;99400.44;5060467;27;129975;-77
2022/07/28 09:33:21;;;;;;;4.90;1.40;;;20.10;1.00;;;22.35;49.06;99406.75;5058567;27;129994;-79
2022/07/28 09:35:55;;;;;;;5.88;1.52;;;20.20;1.00;;;22.52;48.21;99405.97;5059602;27;121694;-79
2022/07/28 09:38:26;;;;;;;5.85;1.55;;;20.20;1.00;;;22.85;48.60;99408.72;5060940;27;121852;-79
2022/07/28 09:41:01;;;;;;;5.45;1.70;;;20.30;1.00;;;23.19;48.33;99402.75;5060726;27;129478;-79
2022/07/28 09:43:37;;;;;;;3.17;1.35;;;20.60;1.00;;;22.87;49.47;99407.13;5060187;27;129175;-75
2022/07/28 09:46:07;;;;;;;;;;;20.60;1.00;;;22.75;48.56;99402.00;5063308;27;119502;-81
2022/07/28 09:48:38;;;;;;;5.15;1.60;;;20.40;1.00;;;23.27;48.56;99407.88;5060643;27;119189;-77
2022/07/28 09:51:13;;;;;;;4.38;1.50;;;20.90;1.00;;;23.51;48.34;99403.47;5062190;27;130062;-78
2022/07/28 09:53:42;;;;;;;5.43;1.90;;;21.20;1.00;;;23.85;46.09;99399.34;5062540;27;129027;-78
2022/07/28 09:56:13;;;;;;;7.15;2.00;;;21.00;1.00;;;24.25;46.51;99401.88;5063297;27;119373;-80
2022/07/28 09:58:52;;;;;;;5.72;1.73;;;21.60;1.00;;;24.74;43.95;99397.97;5070352;27;118549;-77
2022/07/28 10:01:21;;;;;;;5.35;1.60;;;21.70;1.00;;;25.25;44.72;99405.78;5064828;27;129949;-77
2022/07/28 10:03:54;;;;;;;6.68;1.92;;;22.50;1.00;;;25.64;41.62;99396.22;5064113;27;129575;-80
2022/07/28 10:06:29;;;;;;;3.72;1.40;;;22.10;1.00;;;26.04;44.70;99392.91;5063463;27;119373;-76
2022/07/28 10:08:59;;;;;;;4.50;1.25;;;23.00;1.00;;;26.44;40.42;99388.31;5064297;27;119446;-77
2022/07/28 10:11:31;;;;;;;6.40;1.42;;;23.40;1.00;;;26.48;39.30;99391.84;5063551;27;129789;-79
2022/07/28 10:14:02;;;;;;;7.78;1.80;;;23.00;1.00;;;26.26;40.02;99387.84;5063430;27;130052;-76
2022/07/28 10:16:33;;;;;;;4.82;1.40;;;22.20;1.00;;;26.18;42.57;99390.72;5062760;27;119545;-77
2022/07/28 10:19:05;;;;;;;4.30;1.48;;;22.40;1.00;;;26.42;40.35;99382.41;5064304;27;119739;-73
2022/07/28 10:21:41;;;;;;;4.20;1.60;;;22.60;1.00;;;26.29;38.96;99384.22;5061105;27;129853;-77
2022/07/28 10:24:13;;;;;;;3.28;1.27;;;22.70;1.00;;;26.62;40.73;99381.69;5063502;27;128800;-77
2022/07/28 10:26:46;;;;;;;8.30;1.48;;;23.30;1.00;;;27.01;38.56;99381.00;5064352;27;121047;-77